sensor_id;sensor_type;location;lat;lon;timestamp;P1;durP1;ratioP1;P2;durP2;ratioP2
10096;SDS011;5087;42.662;23.466;2023-02-01T00:00:28;0.60;;;0.60;;
10096;SDS011;5087;42.662;23.466;2023-02-01T00:02:55;0.50;;;0.50;;
10096;SDS011;5087;42.662;23.466;2023-02-01T00:05:22;0.50;;;0.50;;
10096;SDS011;5087;42.662;23.466;2023-02-01T00:07:49;0.50;;;0.50;;
10096;SDS011;5087;42.662;23.466;2023-02-01T00:10:16;0.53;;;0.53;;
10096;SDS011;5087;42.662;23.466;2023-02-01T00:12:44;0.50;;;0.50;;
10096;SDS011;5087;42.662;23.466;2023-02-01T00:15:11;0.60;;;0.60;;
10096;SDS011;5087;42.662;23.466;2023-02-01T00:17:38;0.60;;;0.60;;
10096;SDS011;5087;42.662;23.466;2023-02-01T00:20:06;0.60;;;0.60;;
10096;SDS011;5087;42.662;23.466;2023-02-01T00:22:33;0.50;;;0.50;;
10096;SDS011;5087;42.662;23.466;2023-02-01T00:25:01;0.50;;;0.50;;
10096;SDS011;5087;42.662;23.466;2023-02-01T00:27:28;0.50;;;0.50;;
10096;SDS011;5087;42.662;23.466;2023-02-01T00:29:57;0.80;;;0.80;;
10096;SDS011;5087;42.662;23.466;2023-02-01T00:32:24;0.60;;;0.60;;
10096;SDS011;5087;42.662;23.466;2023-02-01T00:34:51;0.43;;;0.43;;
10096;SDS011;5087;42.662;23.466;2023-02-01T00:37:18;0.50;;;0.50;;
10096;SDS011;5087;42.662;23.466;2023-02-01T00:39:44;0.50;;;0.50;;
10096;SDS011;5087;42.662;23.466;2023-02-01T00:42:12;0.50;;;0.50;;
10096;SDS011;5087;42.662;23.466;2023-02-01T00:44:39;0.40;;;0.40;;
10096;SDS011;5087;42.662;23.466;2023-02-01T00:47:08;0.50;;;0.50;;
10096;SDS011;5087;42.662;23.466;2023-02-01T00:49:36;0.50;;;0.50;;
10096;SDS011;5087;42.662;23.466;2023-02-01T00:52:03;0.60;;;0.60;;
10096;SDS011;5087;42.662;23.466;2023-02-01T00:54:30;0.50;;;0.50;;
10096;SDS011;5087;42.662;23.466;2023-02-01T00:56:57;0.60;;;0.60;;
10096;SDS011;5087;42.662;23.466;2023-02-01T00:59:25;0.60;;;0.60;;
10096;SDS011;5087;42.662;23.466;2023-02-01T01:01:52;0.70;;;0.70;;
10096;SDS011;5087;42.662;23.466;2023-02-01T01:04:20;0.70;;;0.70;;
10096;SDS011;5087;42.662;23.466;2023-02-01T01:06:48;0.80;;;0.80;;
10096;SDS011;5087;42.662;23.466;2023-02-01T01:09:15;1.00;;;1.00;;
10096;SDS011;5087;42.662;23.466;2023-02-01T01:11:42;0.90;;;0.90;;
10096;SDS011;5087;42.662;23.466;2023-02-01T01:14:11;1.10;;;1.10;;
10096;SDS011;5087;42.662;23.466;2023-02-01T01:16:38;1.27;;;1.27;;
10096;SDS011;5087;42.662;23.466;2023-02-01T01:19:05;1.00;;;1.00;;
10096;SDS011;5087;42.662;23.466;2023-02-01T01:21:34;1.20;;;1.20;;
10096;SDS011;5087;42.662;23.466;2023-02-01T01:24:02;1.20;;;1.20;;
10096;SDS011;5087;42.662;23.466;2023-02-01T01:26:29;1.20;;;1.20;;
10096;SDS011;5087;42.662;23.466;2023-02-01T01:28:56;1.50;;;1.50;;
10096;SDS011;5087;42.662;23.466;2023-02-01T01:31:24;1.57;;;1.57;;
10096;SDS011;5087;42.662;23.466;2023-02-01T01:33:52;1.20;;;1.20;;
10096;SDS011;5087;42.662;23.466;2023-02-01T01:36:19;1.23;;;1.23;;
10096;SDS011;5087;42.662;23.466;2023-02-01T01:38:48;1.40;;;1.40;;
10096;SDS011;5087;42.662;23.466;2023-02-01T01:41:16;1.70;;;1.70;;
10096;SDS011;5087;42.662;23.466;2023-02-01T01:43:51;1.50;;;1.50;;
10096;SDS011;5087;42.662;23.466;2023-02-01T01:46:20;1.50;;;1.50;;
10096;SDS011;5087;42.662;23.466;2023-02-01T01:48:49;6.53;;;6.20;;
10096;SDS011;5087;42.662;23.466;2023-02-01T01:51:18;1.70;;;1.70;;
10096;SDS011;5087;42.662;23.466;2023-02-01T01:53:50;1.83;;;1.83;;
10096;SDS011;5087;42.662;23.466;2023-02-01T01:56:20;1.80;;;1.80;;
10096;SDS011;5087;42.662;23.466;2023-02-01T01:58:57;1.80;;;1.80;;
10096;SDS011;5087;42.662;23.466;2023-02-01T02:01:25;1.83;;;1.83;;
10096;SDS011;5087;42.662;23.466;2023-02-01T02:03:52;1.80;;;1.80;;
10096;SDS011;5087;42.662;23.466;2023-02-01T02:06:21;1.90;;;1.90;;
10096;SDS011;5087;42.662;23.466;2023-02-01T02:08:53;2.00;;;2.00;;
10096;SDS011;5087;42.662;23.466;2023-02-01T02:11:20;1.90;;;1.90;;
10096;SDS011;5087;42.662;23.466;2023-02-01T02:13:48;1.90;;;1.90;;
10096;SDS011;5087;42.662;23.466;2023-02-01T02:19:15;2.00;;;2.00;;
10096;SDS011;5087;42.662;23.466;2023-02-01T02:21:53;1.87;;;1.87;;
10096;SDS011;5087;42.662;23.466;2023-02-01T02:24:36;2.10;;;2.10;;
10096;SDS011;5087;42.662;23.466;2023-02-01T02:27:10;2.20;;;2.20;;
10096;SDS011;5087;42.662;23.466;2023-02-01T02:35:30;1.80;;;1.80;;
10096;SDS011;5087;42.662;23.466;2023-02-01T02:38:05;1.80;;;1.80;;
10096;SDS011;5087;42.662;23.466;2023-02-01T02:40:39;1.90;;;1.90;;
10096;SDS011;5087;42.662;23.466;2023-02-01T02:43:10;1.90;;;1.90;;
10096;SDS011;5087;42.662;23.466;2023-02-01T02:45:58;1.80;;;1.80;;
10096;SDS011;5087;42.662;23.466;2023-02-01T02:48:46;1.70;;;1.70;;
10096;SDS011;5087;42.662;23.466;2023-02-01T02:51:19;1.70;;;1.70;;
10096;SDS011;5087;42.662;23.466;2023-02-01T02:54:07;1.70;;;1.70;;
10096;SDS011;5087;42.662;23.466;2023-02-01T02:56:52;1.90;;;1.90;;
10096;SDS011;5087;42.662;23.466;2023-02-01T02:59:37;2.10;;;2.10;;
10096;SDS011;5087;42.662;23.466;2023-02-01T03:02:22;2.00;;;2.00;;
10096;SDS011;5087;42.662;23.466;2023-02-01T03:05:15;1.90;;;1.90;;
10096;SDS011;5087;42.662;23.466;2023-02-01T03:07:49;2.00;;;2.00;;
10096;SDS011;5087;42.662;23.466;2023-02-01T03:10:23;1.93;;;1.93;;
10096;SDS011;5087;42.662;23.466;2023-02-01T03:12:52;1.80;;;1.80;;
10096;SDS011;5087;42.662;23.466;2023-02-01T03:15:24;1.60;;;1.60;;
10096;SDS011;5087;42.662;23.466;2023-02-01T03:17:53;1.50;;;1.50;;
10096;SDS011;5087;42.662;23.466;2023-02-01T03:20:23;1.80;;;1.80;;
10096;SDS011;5087;42.662;23.466;2023-02-01T03:22:52;1.80;;;1.80;;
10096;SDS011;5087;42.662;23.466;2023-02-01T03:25:21;1.70;;;1.70;;
10096;SDS011;5087;42.662;23.466;2023-02-01T03:27:51;2.00;;;2.00;;
10096;SDS011;5087;42.662;23.466;2023-02-01T03:30:47;2.10;;;2.10;;
10096;SDS011;5087;42.662;23.466;2023-02-01T03:33:17;2.10;;;2.10;;
10096;SDS011;5087;42.662;23.466;2023-02-01T03:35:54;2.50;;;2.50;;
10096;SDS011;5087;42.662;23.466;2023-02-01T03:38:25;2.77;;;2.77;;
10096;SDS011;5087;42.662;23.466;2023-02-01T03:41:01;2.33;;;2.33;;
10096;SDS011;5087;42.662;23.466;2023-02-01T03:43:29;2.53;;;2.53;;
10096;SDS011;5087;42.662;23.466;2023-02-01T03:46:03;2.40;;;2.40;;
10096;SDS011;5087;42.662;23.466;2023-02-01T03:48:32;2.30;;;2.30;;
10096;SDS011;5087;42.662;23.466;2023-02-01T03:51:01;2.33;;;2.33;;
10096;SDS011;5087;42.662;23.466;2023-02-01T03:53:35;2.47;;;2.47;;
10096;SDS011;5087;42.662;23.466;2023-02-01T03:56:05;2.50;;;2.50;;
10096;SDS011;5087;42.662;23.466;2023-02-01T03:58:33;2.50;;;2.50;;
10096;SDS011;5087;42.662;23.466;2023-02-01T04:01:00;2.60;;;2.60;;
10096;SDS011;5087;42.662;23.466;2023-02-01T04:03:30;3.13;;;3.07;;
10096;SDS011;5087;42.662;23.466;2023-02-01T04:05:58;2.40;;;2.40;;
10096;SDS011;5087;42.662;23.466;2023-02-01T04:08:28;2.50;;;2.50;;
10096;SDS011;5087;42.662;23.466;2023-02-01T04:10:56;2.80;;;2.80;;
10096;SDS011;5087;42.662;23.466;2023-02-01T04:13:23;2.70;;;2.70;;
10096;SDS011;5087;42.662;23.466;2023-02-01T04:15:51;2.80;;;2.80;;
10096;SDS011;5087;42.662;23.466;2023-02-01T04:18:19;2.70;;;2.70;;
10096;SDS011;5087;42.662;23.466;2023-02-01T04:20:46;2.80;;;2.80;;
10096;SDS011;5087;42.662;23.466;2023-02-01T04:23:13;2.50;;;2.50;;
10096;SDS011;5087;42.662;23.466;2023-02-01T04:25:42;2.70;;;2.70;;
10096;SDS011;5087;42.662;23.466;2023-02-01T04:28:37;2.90;;;2.90;;
10096;SDS011;5087;42.662;23.466;2023-02-01T04:31:07;2.80;;;2.80;;
10096;SDS011;5087;42.662;23.466;2023-02-01T04:33:34;2.70;;;2.70;;
10096;SDS011;5087;42.662;23.466;2023-02-01T04:36:01;2.80;;;2.80;;
10096;SDS011;5087;42.662;23.466;2023-02-01T04:38:31;2.83;;;2.83;;
10096;SDS011;5087;42.662;23.466;2023-02-01T04:40:58;2.73;;;2.73;;
10096;SDS011;5087;42.662;23.466;2023-02-01T04:43:25;2.60;;;2.60;;
10096;SDS011;5087;42.662;23.466;2023-02-01T04:45:54;2.70;;;2.70;;
10096;SDS011;5087;42.662;23.466;2023-02-01T04:48:21;2.60;;;2.60;;
10096;SDS011;5087;42.662;23.466;2023-02-01T04:50:49;2.80;;;2.80;;
10096;SDS011;5087;42.662;23.466;2023-02-01T04:53:16;2.50;;;2.50;;
10096;SDS011;5087;42.662;23.466;2023-02-01T04:55:43;2.47;;;2.47;;
10096;SDS011;5087;42.662;23.466;2023-02-01T04:58:10;2.50;;;2.50;;
10096;SDS011;5087;42.662;23.466;2023-02-01T05:00:37;2.50;;;2.50;;
10096;SDS011;5087;42.662;23.466;2023-02-01T05:03:06;2.40;;;2.40;;
10096;SDS011;5087;42.662;23.466;2023-02-01T05:05:34;2.60;;;2.60;;
10096;SDS011;5087;42.662;23.466;2023-02-01T05:08:01;2.50;;;2.50;;
10096;SDS011;5087;42.662;23.466;2023-02-01T05:10:31;2.50;;;2.50;;
10096;SDS011;5087;42.662;23.466;2023-02-01T05:12:58;2.50;;;2.50;;
10096;SDS011;5087;42.662;23.466;2023-02-01T05:15:42;2.30;;;2.30;;
10096;SDS011;5087;42.662;23.466;2023-02-01T05:18:13;2.20;;;2.20;;
10096;SDS011;5087;42.662;23.466;2023-02-01T05:20:40;2.20;;;2.20;;
10096;SDS011;5087;42.662;23.466;2023-02-01T05:23:07;2.10;;;2.10;;
10096;SDS011;5087;42.662;23.466;2023-02-01T05:25:34;2.07;;;2.07;;
10096;SDS011;5087;42.662;23.466;2023-02-01T05:28:00;1.93;;;1.93;;
10096;SDS011;5087;42.662;23.466;2023-02-01T05:30:27;1.80;;;1.80;;
10096;SDS011;5087;42.662;23.466;2023-02-01T05:32:55;1.93;;;1.93;;
10096;SDS011;5087;42.662;23.466;2023-02-01T05:35:25;2.00;;;2.00;;
10096;SDS011;5087;42.662;23.466;2023-02-01T05:37:52;2.87;;;2.77;;
10096;SDS011;5087;42.662;23.466;2023-02-01T05:40:19;1.90;;;1.90;;
10096;SDS011;5087;42.662;23.466;2023-02-01T05:42:46;2.00;;;2.00;;
10096;SDS011;5087;42.662;23.466;2023-02-01T05:45:13;1.80;;;1.80;;
10096;SDS011;5087;42.662;23.466;2023-02-01T05:47:40;1.90;;;1.90;;
10096;SDS011;5087;42.662;23.466;2023-02-01T05:50:07;1.80;;;1.80;;
10096;SDS011;5087;42.662;23.466;2023-02-01T05:52:36;2.37;;;2.30;;
10096;SDS011;5087;42.662;23.466;2023-02-01T05:55:03;1.80;;;1.80;;
10096;SDS011;5087;42.662;23.466;2023-02-01T05:57:31;2.20;;;2.20;;
10096;SDS011;5087;42.662;23.466;2023-02-01T05:59:58;1.97;;;1.97;;
10096;SDS011;5087;42.662;23.466;2023-02-01T06:02:26;2.20;;;2.20;;
10096;SDS011;5087;42.662;23.466;2023-02-01T06:04:53;3.53;;;3.43;;
10096;SDS011;5087;42.662;23.466;2023-02-01T06:07:20;5.00;;;4.77;;
10096;SDS011;5087;42.662;23.466;2023-02-01T06:09:48;2.30;;;2.30;;
10096;SDS011;5087;42.662;23.466;2023-02-01T06:12:15;2.63;;;2.63;;
10096;SDS011;5087;42.662;23.466;2023-02-01T06:14:42;2.30;;;2.30;;
10096;SDS011;5087;42.662;23.466;2023-02-01T06:17:10;2.30;;;2.30;;
10096;SDS011;5087;42.662;23.466;2023-02-01T06:19:37;2.40;;;2.40;;
10096;SDS011;5087;42.662;23.466;2023-02-01T06:22:05;3.63;;;3.53;;
10096;SDS011;5087;42.662;23.466;2023-02-01T06:24:33;2.40;;;2.40;;
10096;SDS011;5087;42.662;23.466;2023-02-01T06:27:03;2.50;;;2.50;;
10096;SDS011;5087;42.662;23.466;2023-02-01T06:29:29;2.40;;;2.40;;
10096;SDS011;5087;42.662;23.466;2023-02-01T06:31:57;3.10;;;3.00;;
10096;SDS011;5087;42.662;23.466;2023-02-01T06:34:27;2.40;;;2.40;;
10096;SDS011;5087;42.662;23.466;2023-02-01T06:36:55;2.50;;;2.50;;
10096;SDS011;5087;42.662;23.466;2023-02-01T06:39:26;2.70;;;2.70;;
10096;SDS011;5087;42.662;23.466;2023-02-01T06:41:54;2.60;;;2.60;;
10096;SDS011;5087;42.662;23.466;2023-02-01T06:44:22;2.63;;;2.63;;
10096;SDS011;5087;42.662;23.466;2023-02-01T06:46:49;2.90;;;2.90;;
10096;SDS011;5087;42.662;23.466;2023-02-01T06:49:16;2.60;;;2.60;;
10096;SDS011;5087;42.662;23.466;2023-02-01T06:51:43;2.80;;;2.80;;
10096;SDS011;5087;42.662;23.466;2023-02-01T06:54:10;2.70;;;2.70;;
10096;SDS011;5087;42.662;23.466;2023-02-01T06:56:42;3.00;;;3.00;;
10096;SDS011;5087;42.662;23.466;2023-02-01T06:59:25;3.00;;;3.00;;
10096;SDS011;5087;42.662;23.466;2023-02-01T07:01:52;3.00;;;3.00;;
10096;SDS011;5087;42.662;23.466;2023-02-01T07:04:19;2.80;;;2.80;;
10096;SDS011;5087;42.662;23.466;2023-02-01T07:06:47;3.00;;;3.00;;
10096;SDS011;5087;42.662;23.466;2023-02-01T07:09:14;3.17;;;3.17;;
10096;SDS011;5087;42.662;23.466;2023-02-01T07:11:41;2.83;;;2.83;;
10096;SDS011;5087;42.662;23.466;2023-02-01T07:14:09;3.00;;;3.00;;
10096;SDS011;5087;42.662;23.466;2023-02-01T07:16:38;3.33;;;3.33;;
10096;SDS011;5087;42.662;23.466;2023-02-01T07:19:05;3.20;;;3.20;;
10096;SDS011;5087;42.662;23.466;2023-02-01T07:21:32;3.10;;;3.10;;
10096;SDS011;5087;42.662;23.466;2023-02-01T07:23:59;3.00;;;3.00;;
10096;SDS011;5087;42.662;23.466;2023-02-01T07:26:26;2.80;;;2.80;;
10096;SDS011;5087;42.662;23.466;2023-02-01T07:28:53;3.20;;;3.20;;
10096;SDS011;5087;42.662;23.466;2023-02-01T07:31:21;3.10;;;3.10;;
10096;SDS011;5087;42.662;23.466;2023-02-01T07:33:49;3.20;;;3.20;;
10096;SDS011;5087;42.662;23.466;2023-02-01T07:36:18;2.97;;;2.97;;
10096;SDS011;5087;42.662;23.466;2023-02-01T07:38:45;3.30;;;3.30;;
10096;SDS011;5087;42.662;23.466;2023-02-01T07:41:13;3.10;;;3.10;;
10096;SDS011;5087;42.662;23.466;2023-02-01T07:43:40;3.10;;;3.10;;
10096;SDS011;5087;42.662;23.466;2023-02-01T07:46:07;3.20;;;3.20;;
10096;SDS011;5087;42.662;23.466;2023-02-01T07:48:36;3.40;;;3.40;;
10096;SDS011;5087;42.662;23.466;2023-02-01T07:51:05;3.40;;;3.40;;
10096;SDS011;5087;42.662;23.466;2023-02-01T07:53:33;3.90;;;3.80;;
10096;SDS011;5087;42.662;23.466;2023-02-01T07:56:00;3.40;;;3.40;;
10096;SDS011;5087;42.662;23.466;2023-02-01T07:58:27;3.40;;;3.40;;
10096;SDS011;5087;42.662;23.466;2023-02-01T08:00:54;3.30;;;3.30;;
10096;SDS011;5087;42.662;23.466;2023-02-01T08:03:38;3.40;;;3.40;;
10096;SDS011;5087;42.662;23.466;2023-02-01T08:06:07;3.60;;;3.60;;
10096;SDS011;5087;42.662;23.466;2023-02-01T08:08:34;3.60;;;3.60;;
10096;SDS011;5087;42.662;23.466;2023-02-01T08:11:02;3.70;;;3.70;;
10096;SDS011;5087;42.662;23.466;2023-02-01T08:13:29;3.60;;;3.60;;
10096;SDS011;5087;42.662;23.466;2023-02-01T08:15:57;3.70;;;3.70;;
10096;SDS011;5087;42.662;23.466;2023-02-01T08:18:24;3.60;;;3.60;;
10096;SDS011;5087;42.662;23.466;2023-02-01T08:20:52;3.60;;;3.60;;
10096;SDS011;5087;42.662;23.466;2023-02-01T08:23:20;4.07;;;3.97;;
10096;SDS011;5087;42.662;23.466;2023-02-01T08:25:47;3.60;;;3.60;;
10096;SDS011;5087;42.662;23.466;2023-02-01T08:28:15;3.40;;;3.40;;
10096;SDS011;5087;42.662;23.466;2023-02-01T08:30:42;3.20;;;3.20;;
10096;SDS011;5087;42.662;23.466;2023-02-01T08:33:09;3.50;;;3.50;;
10096;SDS011;5087;42.662;23.466;2023-02-01T08:35:37;3.60;;;3.60;;
10096;SDS011;5087;42.662;23.466;2023-02-01T08:38:04;3.60;;;3.60;;
10096;SDS011;5087;42.662;23.466;2023-02-01T08:40:33;4.67;;;4.57;;
10096;SDS011;5087;42.662;23.466;2023-02-01T08:43:00;3.50;;;3.50;;
10096;SDS011;5087;42.662;23.466;2023-02-01T08:45:27;3.80;;;3.80;;
10096;SDS011;5087;42.662;23.466;2023-02-01T08:47:55;3.70;;;3.70;;
10096;SDS011;5087;42.662;23.466;2023-02-01T08:50:22;3.50;;;3.50;;
10096;SDS011;5087;42.662;23.466;2023-02-01T08:52:49;3.60;;;3.60;;
10096;SDS011;5087;42.662;23.466;2023-02-01T08:55:23;3.73;;;3.73;;
10096;SDS011;5087;42.662;23.466;2023-02-01T08:57:53;3.73;;;3.73;;
10096;SDS011;5087;42.662;23.466;2023-02-01T09:00:21;4.10;;;4.00;;
10096;SDS011;5087;42.662;23.466;2023-02-01T09:02:48;3.77;;;3.77;;
10096;SDS011;5087;42.662;23.466;2023-02-01T09:05:15;3.63;;;3.63;;
10096;SDS011;5087;42.662;23.466;2023-02-01T09:07:47;3.70;;;3.70;;
10096;SDS011;5087;42.662;23.466;2023-02-01T09:10:14;3.70;;;3.70;;
10096;SDS011;5087;42.662;23.466;2023-02-01T09:12:41;4.20;;;4.10;;
10096;SDS011;5087;42.662;23.466;2023-02-01T09:15:12;3.70;;;3.70;;
10096;SDS011;5087;42.662;23.466;2023-02-01T09:17:39;4.33;;;4.23;;
10096;SDS011;5087;42.662;23.466;2023-02-01T09:20:09;3.80;;;3.80;;
10096;SDS011;5087;42.662;23.466;2023-02-01T09:22:36;11.13;;;10.20;;
10096;SDS011;5087;42.662;23.466;2023-02-01T09:25:03;4.00;;;3.90;;
10096;SDS011;5087;42.662;23.466;2023-02-01T09:27:31;3.80;;;3.80;;
10096;SDS011;5087;42.662;23.466;2023-02-01T09:29:58;4.13;;;4.03;;
10096;SDS011;5087;42.662;23.466;2023-02-01T09:32:27;4.10;;;4.00;;
10096;SDS011;5087;42.662;23.466;2023-02-01T09:34:54;4.10;;;4.00;;
10096;SDS011;5087;42.662;23.466;2023-02-01T09:37:22;4.20;;;4.10;;
10096;SDS011;5087;42.662;23.466;2023-02-01T09:39:49;4.10;;;4.00;;
10096;SDS011;5087;42.662;23.466;2023-02-01T09:42:21;4.00;;;3.90;;
10096;SDS011;5087;42.662;23.466;2023-02-01T09:44:57;3.80;;;3.80;;
10096;SDS011;5087;42.662;23.466;2023-02-01T09:47:27;3.73;;;3.73;;
10096;SDS011;5087;42.662;23.466;2023-02-01T09:49:56;3.80;;;3.80;;
10096;SDS011;5087;42.662;23.466;2023-02-01T09:52:25;3.60;;;3.60;;
10096;SDS011;5087;42.662;23.466;2023-02-01T09:54:54;4.03;;;3.93;;
10096;SDS011;5087;42.662;23.466;2023-02-01T09:57:28;3.93;;;3.87;;
10096;SDS011;5087;42.662;23.466;2023-02-01T10:00:00;3.80;;;3.80;;
10096;SDS011;5087;42.662;23.466;2023-02-01T10:02:39;3.90;;;3.90;;
10096;SDS011;5087;42.662;23.466;2023-02-01T10:05:10;4.10;;;4.00;;
10096;SDS011;5087;42.662;23.466;2023-02-01T10:07:40;4.00;;;3.90;;
10096;SDS011;5087;42.662;23.466;2023-02-01T10:10:13;3.53;;;3.53;;
10096;SDS011;5087;42.662;23.466;2023-02-01T10:12:50;3.63;;;3.63;;
10096;SDS011;5087;42.662;23.466;2023-02-01T10:15:24;3.60;;;3.60;;
10096;SDS011;5087;42.662;23.466;2023-02-01T10:17:57;3.40;;;3.40;;
10096;SDS011;5087;42.662;23.466;2023-02-01T10:20:27;3.20;;;3.20;;
10096;SDS011;5087;42.662;23.466;2023-02-01T10:22:57;3.37;;;3.37;;
10096;SDS011;5087;42.662;23.466;2023-02-01T10:25:32;3.80;;;3.80;;
10096;SDS011;5087;42.662;23.466;2023-02-01T10:28:02;3.30;;;3.30;;
10096;SDS011;5087;42.662;23.466;2023-02-01T10:30:31;3.47;;;3.47;;
10096;SDS011;5087;42.662;23.466;2023-02-01T10:33:12;3.40;;;3.40;;
10096;SDS011;5087;42.662;23.466;2023-02-01T10:35:41;3.50;;;3.50;;
10096;SDS011;5087;42.662;23.466;2023-02-01T10:38:11;3.40;;;3.40;;
10096;SDS011;5087;42.662;23.466;2023-02-01T10:40:41;3.43;;;3.43;;
10096;SDS011;5087;42.662;23.466;2023-02-01T10:43:09;3.30;;;3.30;;
10096;SDS011;5087;42.662;23.466;2023-02-01T10:45:36;3.40;;;3.40;;
10096;SDS011;5087;42.662;23.466;2023-02-01T10:48:06;3.33;;;3.33;;
10096;SDS011;5087;42.662;23.466;2023-02-01T10:50:35;3.30;;;3.30;;
10096;SDS011;5087;42.662;23.466;2023-02-01T10:53:05;7.07;;;6.53;;
10096;SDS011;5087;42.662;23.466;2023-02-01T10:55:35;3.30;;;3.30;;
10096;SDS011;5087;42.662;23.466;2023-02-01T10:58:03;3.43;;;3.43;;
10096;SDS011;5087;42.662;23.466;2023-02-01T11:00:36;3.60;;;3.60;;
10096;SDS011;5087;42.662;23.466;2023-02-01T11:05:51;3.40;;;3.40;;
10096;SDS011;5087;42.662;23.466;2023-02-01T11:08:18;3.40;;;3.40;;
10096;SDS011;5087;42.662;23.466;2023-02-01T11:10:46;3.40;;;3.40;;
10096;SDS011;5087;42.662;23.466;2023-02-01T11:13:13;3.13;;;3.13;;
10096;SDS011;5087;42.662;23.466;2023-02-01T11:15:46;3.50;;;3.50;;
10096;SDS011;5087;42.662;23.466;2023-02-01T11:18:16;3.10;;;3.10;;
10096;SDS011;5087;42.662;23.466;2023-02-01T11:20:44;3.20;;;3.20;;
10096;SDS011;5087;42.662;23.466;2023-02-01T11:23:16;3.27;;;3.17;;
10096;SDS011;5087;42.662;23.466;2023-02-01T11:25:50;3.10;;;3.10;;
10096;SDS011;5087;42.662;23.466;2023-02-01T11:28:18;2.70;;;2.70;;
10096;SDS011;5087;42.662;23.466;2023-02-01T11:30:47;2.40;;;2.40;;
10096;SDS011;5087;42.662;23.466;2023-02-01T11:33:15;2.40;;;2.40;;
10096;SDS011;5087;42.662;23.466;2023-02-01T11:35:42;2.50;;;2.50;;
10096;SDS011;5087;42.662;23.466;2023-02-01T11:38:22;2.60;;;2.60;;
10096;SDS011;5087;42.662;23.466;2023-02-01T11:40:50;2.50;;;2.50;;
10096;SDS011;5087;42.662;23.466;2023-02-01T11:43:22;3.10;;;3.10;;
10096;SDS011;5087;42.662;23.466;2023-02-01T11:45:56;3.20;;;3.20;;
10096;SDS011;5087;42.662;23.466;2023-02-01T11:48:24;3.27;;;3.27;;
10096;SDS011;5087;42.662;23.466;2023-02-01T11:50:55;3.57;;;3.53;;
10096;SDS011;5087;42.662;23.466;2023-02-01T11:56:18;3.00;;;3.00;;
10096;SDS011;5087;42.662;23.466;2023-02-01T12:01:40;2.70;;;2.70;;
10096;SDS011;5087;42.662;23.466;2023-02-01T12:07:10;2.70;;;2.70;;
10096;SDS011;5087;42.662;23.466;2023-02-01T12:09:54;3.10;;;3.00;;
10096;SDS011;5087;42.662;23.466;2023-02-01T12:12:26;2.90;;;2.90;;
10096;SDS011;5087;42.662;23.466;2023-02-01T12:15:08;2.90;;;2.90;;
10096;SDS011;5087;42.662;23.466;2023-02-01T12:17:54;2.80;;;2.80;;
10096;SDS011;5087;42.662;23.466;2023-02-01T12:20:28;3.00;;;3.00;;
10096;SDS011;5087;42.662;23.466;2023-02-01T12:23:02;2.80;;;2.80;;
10096;SDS011;5087;42.662;23.466;2023-02-01T12:25:35;2.60;;;2.60;;
10096;SDS011;5087;42.662;23.466;2023-02-01T12:28:30;2.50;;;2.50;;
10096;SDS011;5087;42.662;23.466;2023-02-01T12:31:05;2.40;;;2.40;;
10096;SDS011;5087;42.662;23.466;2023-02-01T12:33:36;2.40;;;2.40;;
10096;SDS011;5087;42.662;23.466;2023-02-01T12:36:09;2.70;;;2.70;;
10096;SDS011;5087;42.662;23.466;2023-02-01T12:38:49;2.50;;;2.50;;
10096;SDS011;5087;42.662;23.466;2023-02-01T12:41:25;2.40;;;2.40;;
10096;SDS011;5087;42.662;23.466;2023-02-01T12:43:56;2.50;;;2.50;;
10096;SDS011;5087;42.662;23.466;2023-02-01T12:46:26;2.70;;;2.70;;
10096;SDS011;5087;42.662;23.466;2023-02-01T12:48:56;2.30;;;2.30;;
10096;SDS011;5087;42.662;23.466;2023-02-01T12:51:25;2.30;;;2.30;;
10096;SDS011;5087;42.662;23.466;2023-02-01T12:53:54;2.47;;;2.47;;
10096;SDS011;5087;42.662;23.466;2023-02-01T12:56:26;2.40;;;2.40;;
10096;SDS011;5087;42.662;23.466;2023-02-01T12:58:57;2.40;;;2.40;;
10096;SDS011;5087;42.662;23.466;2023-02-01T13:01:28;2.63;;;2.63;;
10096;SDS011;5087;42.662;23.466;2023-02-01T13:04:00;2.03;;;2.03;;
10096;SDS011;5087;42.662;23.466;2023-02-01T13:06:35;2.60;;;2.60;;
10096;SDS011;5087;42.662;23.466;2023-02-01T13:09:04;2.77;;;2.73;;
10096;SDS011;5087;42.662;23.466;2023-02-01T13:11:34;2.30;;;2.30;;
10096;SDS011;5087;42.662;23.466;2023-02-01T13:14:03;2.60;;;2.60;;
10096;SDS011;5087;42.662;23.466;2023-02-01T13:16:32;2.20;;;2.20;;
10096;SDS011;5087;42.662;23.466;2023-02-01T13:19:02;2.30;;;2.30;;
10096;SDS011;5087;42.662;23.466;2023-02-01T13:21:31;2.10;;;2.10;;
10096;SDS011;5087;42.662;23.466;2023-02-01T13:23:59;2.30;;;2.30;;
10096;SDS011;5087;42.662;23.466;2023-02-01T13:26:26;2.40;;;2.40;;
10096;SDS011;5087;42.662;23.466;2023-02-01T13:28:53;2.00;;;2.00;;
10096;SDS011;5087;42.662;23.466;2023-02-01T13:34:29;2.23;;;2.23;;
10096;SDS011;5087;42.662;23.466;2023-02-01T13:37:03;1.80;;;1.80;;
10096;SDS011;5087;42.662;23.466;2023-02-01T13:39:43;1.70;;;1.70;;
10096;SDS011;5087;42.662;23.466;2023-02-01T13:42:13;1.70;;;1.70;;
10096;SDS011;5087;42.662;23.466;2023-02-01T13:44:42;1.60;;;1.60;;
10096;SDS011;5087;42.662;23.466;2023-02-01T13:47:18;1.67;;;1.67;;
10096;SDS011;5087;42.662;23.466;2023-02-01T13:49:50;1.70;;;1.70;;
10096;SDS011;5087;42.662;23.466;2023-02-01T13:52:22;1.80;;;1.80;;
10096;SDS011;5087;42.662;23.466;2023-02-01T13:55:00;2.00;;;2.00;;
10096;SDS011;5087;42.662;23.466;2023-02-01T13:57:33;1.80;;;1.80;;
10096;SDS011;5087;42.662;23.466;2023-02-01T14:00:07;2.00;;;2.00;;
10096;SDS011;5087;42.662;23.466;2023-02-01T14:02:48;1.90;;;1.90;;
10096;SDS011;5087;42.662;23.466;2023-02-01T14:08:11;1.70;;;1.70;;
10096;SDS011;5087;42.662;23.466;2023-02-01T14:10:48;1.60;;;1.60;;
10096;SDS011;5087;42.662;23.466;2023-02-01T14:13:22;1.80;;;1.80;;
10096;SDS011;5087;42.662;23.466;2023-02-01T14:18:49;1.90;;;1.90;;
10096;SDS011;5087;42.662;23.466;2023-02-01T14:21:17;1.53;;;1.53;;
10096;SDS011;5087;42.662;23.466;2023-02-01T14:23:48;1.70;;;1.70;;
10096;SDS011;5087;42.662;23.466;2023-02-01T14:26:21;1.70;;;1.70;;
10096;SDS011;5087;42.662;23.466;2023-02-01T14:29:00;1.60;;;1.60;;
10096;SDS011;5087;42.662;23.466;2023-02-01T14:34:17;1.60;;;1.60;;
10096;SDS011;5087;42.662;23.466;2023-02-01T14:36:46;1.60;;;1.60;;
10096;SDS011;5087;42.662;23.466;2023-02-01T14:39:24;1.50;;;1.50;;
10096;SDS011;5087;42.662;23.466;2023-02-01T14:41:53;1.70;;;1.70;;
10096;SDS011;5087;42.662;23.466;2023-02-01T14:44:30;1.60;;;1.60;;
10096;SDS011;5087;42.662;23.466;2023-02-01T14:47:09;1.60;;;1.60;;
10096;SDS011;5087;42.662;23.466;2023-02-01T14:49:37;1.60;;;1.60;;
10096;SDS011;5087;42.662;23.466;2023-02-01T14:52:09;1.60;;;1.60;;
10096;SDS011;5087;42.662;23.466;2023-02-01T14:54:40;1.50;;;1.50;;
10096;SDS011;5087;42.662;23.466;2023-02-01T14:57:11;1.73;;;1.73;;
10096;SDS011;5087;42.662;23.466;2023-02-01T14:59:40;1.90;;;1.90;;
10096;SDS011;5087;42.662;23.466;2023-02-01T15:02:15;1.90;;;1.90;;
10096;SDS011;5087;42.662;23.466;2023-02-01T15:04:46;2.00;;;2.00;;
10096;SDS011;5087;42.662;23.466;2023-02-01T15:07:16;2.50;;;2.50;;
10096;SDS011;5087;42.662;23.466;2023-02-01T15:09:49;2.10;;;2.10;;
10096;SDS011;5087;42.662;23.466;2023-02-01T15:12:22;2.07;;;2.07;;
10096;SDS011;5087;42.662;23.466;2023-02-01T15:15:03;1.90;;;1.90;;
10096;SDS011;5087;42.662;23.466;2023-02-01T15:17:35;3.37;;;3.27;;
10096;SDS011;5087;42.662;23.466;2023-02-01T15:20:03;2.13;;;2.13;;
10096;SDS011;5087;42.662;23.466;2023-02-01T15:22:31;2.20;;;2.20;;
10096;SDS011;5087;42.662;23.466;2023-02-01T15:24:59;2.30;;;2.30;;
10096;SDS011;5087;42.662;23.466;2023-02-01T15:27:27;2.83;;;2.73;;
10096;SDS011;5087;42.662;23.466;2023-02-01T15:29:54;2.53;;;2.53;;
10096;SDS011;5087;42.662;23.466;2023-02-01T15:32:31;2.40;;;2.40;;
10096;SDS011;5087;42.662;23.466;2023-02-01T15:34:59;2.20;;;2.20;;
10096;SDS011;5087;42.662;23.466;2023-02-01T15:37:26;2.13;;;2.13;;